sensor_id;sensor_type;location;lat;lon;timestamp;P1;P2;P0
47079;PMS5003;33067;49.296;14.470;2024-01-11T00:01:37;118;105;
47079;PMS5003;33067;49.296;14.470;2024-01-11T00:04:01;102;94;
47079;PMS5003;33067;49.296;14.470;2024-01-11T00:06:27;114;105;
47079;PMS5003;33067;49.296;14.470;2024-01-11T00:08:52;126;105;
47079;PMS5003;33067;49.296;14.470;2024-01-11T00:11:18;118;105;
47079;PMS5003;33067;49.296;14.470;2024-01-11T00:13:43;106;91;
47079;PMS5003;33067;49.296;14.470;2024-01-11T00:16:08;109;93;
47079;PMS5003;33067;49.296;14.470;2024-01-11T00:18:34;97;91;
47079;PMS5003;33067;49.296;14.470;2024-01-11T00:21:00;111;99;
47079;PMS5003;33067;49.296;14.470;2024-01-11T00:23:25;100;88;
47079;PMS5003;33067;49.296;14.470;2024-01-11T00:25:50;121;97;
47079;PMS5003;33067;49.296;14.470;2024-01-11T00:28:15;120;99;
47079;PMS5003;33067;49.296;14.470;2024-01-11T00:30:40;111;93;
47079;PMS5003;33067;49.296;14.470;2024-01-11T00:33:06;105;91;
47079;PMS5003;33067;49.296;14.470;2024-01-11T00:35:31;96;88;
47079;PMS5003;33067;49.296;14.470;2024-01-11T00:37:57;102;88;
47079;PMS5003;33067;49.296;14.470;2024-01-11T00:40:22;117;100;
47079;PMS5003;33067;49.296;14.470;2024-01-11T00:42:48;108;96;
47079;PMS5003;33067;49.296;14.470;2024-01-11T00:45:14;108;91;
47079;PMS5003;33067;49.296;14.470;2024-01-11T00:47:40;114;105;
47079;PMS5003;33067;49.296;14.470;2024-01-11T00:50:06;96;87;
47079;PMS5003;33067;49.296;14.470;2024-01-11T00:52:31;111;97;
47079;PMS5003;33067;49.296;14.470;2024-01-11T00:54:56;139;108;
47079;PMS5003;33067;49.296;14.470;2024-01-11T00:57:21;115;106;
47079;PMS5003;33067;49.296;14.470;2024-01-11T00:59:47;106;99;
47079;PMS5003;33067;49.296;14.470;2024-01-11T01:02:11;121;102;
47079;PMS5003;33067;49.296;14.470;2024-01-11T01:04:37;120;96;
47079;PMS5003;33067;49.296;14.470;2024-01-11T01:07:02;123;105;
47079;PMS5003;33067;49.296;14.470;2024-01-11T01:09:28;112;100;
47079;PMS5003;33067;49.296;14.470;2024-01-11T01:11:53;102;97;
47079;PMS5003;33067;49.296;14.470;2024-01-11T01:14:19;133;115;
47079;PMS5003;33067;49.296;14.470;2024-01-11T01:16:43;136;118;
47079;PMS5003;33067;49.296;14.470;2024-01-11T01:19:08;144;120;
47079;PMS5003;33067;49.296;14.470;2024-01-11T01:21:34;115;103;
47079;PMS5003;33067;49.296;14.470;2024-01-11T01:23:59;147;121;
47079;PMS5003;33067;49.296;14.470;2024-01-11T01:26:24;130;121;
47079;PMS5003;33067;49.296;14.470;2024-01-11T01:28:50;139;115;
47079;PMS5003;33067;49.296;14.470;2024-01-11T01:31:15;139;120;
47079;PMS5003;33067;49.296;14.470;2024-01-11T01:33:40;147;129;
47079;PMS5003;33067;49.296;14.470;2024-01-11T01:36:08;124;112;
47079;PMS5003;33067;49.296;14.470;2024-01-11T01:38:31;124;109;
47079;PMS5003;33067;49.296;14.470;2024-01-11T01:40:56;130;112;
47079;PMS5003;33067;49.296;14.470;2024-01-11T01:43:22;112;109;
47079;PMS5003;33067;49.296;14.470;2024-01-11T01:45:48;120;109;
47079;PMS5003;33067;49.296;14.470;2024-01-11T01:48:13;130;112;
47079;PMS5003;33067;49.296;14.470;2024-01-11T01:50:39;133;109;
47079;PMS5003;33067;49.296;14.470;2024-01-11T01:53:05;135;114;
47079;PMS5003;33067;49.296;14.470;2024-01-11T01:55:31;124;115;
47079;PMS5003;33067;49.296;14.470;2024-01-11T01:57:57;114;105;
47079;PMS5003;33067;49.296;14.470;2024-01-11T02:00:22;120;103;
47079;PMS5003;33067;49.296;14.470;2024-01-11T02:02:50;126;106;
47079;PMS5003;33067;49.296;14.470;2024-01-11T02:05:14;142;120;
47079;PMS5003;33067;49.296;14.470;2024-01-11T02:07:39;129;109;
47079;PMS5003;33067;49.296;14.470;2024-01-11T02:10:05;123;109;
47079;PMS5003;33067;49.296;14.470;2024-01-11T02:12:30;130;120;
47079;PMS5003;33067;49.296;14.470;2024-01-11T02:14:55;120;112;
47079;PMS5003;33067;49.296;14.470;2024-01-11T02:17:21;123;102;
47079;PMS5003;33067;49.296;14.470;2024-01-11T02:19:47;132;111;
47079;PMS5003;33067;49.296;14.470;2024-01-11T02:22:14;127;106;
47079;PMS5003;33067;49.296;14.470;2024-01-11T02:24:38;147;124;
47079;PMS5003;33067;49.296;14.470;2024-01-11T02:27:04;138;123;
47079;PMS5003;33067;49.296;14.470;2024-01-11T02:29:29;114;105;
47079;PMS5003;33067;49.296;14.470;2024-01-11T02:31:54;130;111;
47079;PMS5003;33067;49.296;14.470;2024-01-11T02:34:19;138;114;
47079;PMS5003;33067;49.296;14.470;2024-01-11T02:36:45;127;111;
47079;PMS5003;33067;49.296;14.470;2024-01-11T02:39:10;117;109;
47079;PMS5003;33067;49.296;14.470;2024-01-11T02:41:36;144;112;
47079;PMS5003;33067;49.296;14.470;2024-01-11T02:44:01;153;121;
47079;PMS5003;33067;49.296;14.470;2024-01-11T02:46:27;142;121;
47079;PMS5003;33067;49.296;14.470;2024-01-11T02:48:53;133;118;
47079;PMS5003;33067;49.296;14.470;2024-01-11T02:51:18;148;129;
47079;PMS5003;33067;49.296;14.470;2024-01-11T02:53:44;141;124;
47079;PMS5003;33067;49.296;14.470;2024-01-11T02:56:09;144;132;
47079;PMS5003;33067;49.296;14.470;2024-01-11T02:58:35;145;123;
47079;PMS5003;33067;49.296;14.470;2024-01-11T03:01:00;153;123;
47079;PMS5003;33067;49.296;14.470;2024-01-11T03:03:26;160;130;
47079;PMS5003;33067;49.296;14.470;2024-01-11T03:05:51;156;138;
47079;PMS5003;33067;49.296;14.470;2024-01-11T03:08:17;163;138;
47079;PMS5003;33067;49.296;14.470;2024-01-11T03:13:02;141;115;
47079;PMS5003;33067;49.296;14.470;2024-01-11T03:15:27;141;124;
47079;PMS5003;33067;49.296;14.470;2024-01-11T03:17:53;150;121;
47079;PMS5003;33067;49.296;14.470;2024-01-11T03:20:18;138;126;
47079;PMS5003;33067;49.296;14.470;2024-01-11T03:22:45;148;123;
47079;PMS5003;33067;49.296;14.470;2024-01-11T03:25:10;150;129;
47079;PMS5003;33067;49.296;14.470;2024-01-11T03:27:35;147;124;
47079;PMS5003;33067;49.296;14.470;2024-01-11T03:30:00;141;121;
47079;PMS5003;33067;49.296;14.470;2024-01-11T03:32:26;145;132;
47079;PMS5003;33067;49.296;14.470;2024-01-11T03:34:51;144;115;
47079;PMS5003;33067;49.296;14.470;2024-01-11T03:37:16;145;129;
47079;PMS5003;33067;49.296;14.470;2024-01-11T03:39:42;154;127;
47079;PMS5003;33067;49.296;14.470;2024-01-11T03:42:07;156;130;
47079;PMS5003;33067;49.296;14.470;2024-01-11T03:44:33;169;139;
47079;PMS5003;33067;49.296;14.470;2024-01-11T03:46:58;153;126;
47079;PMS5003;33067;49.296;14.470;2024-01-11T03:49:24;132;112;
47079;PMS5003;33067;49.296;14.470;2024-01-11T03:51:49;141;120;
47079;PMS5003;33067;49.296;14.470;2024-01-11T03:54:15;142;120;
47079;PMS5003;33067;49.296;14.470;2024-01-11T03:56:40;148;123;
47079;PMS5003;33067;49.296;14.470;2024-01-11T03:59:06;136;114;
47079;PMS5003;33067;49.296;14.470;2024-01-11T04:01:31;132;118;
47079;PMS5003;33067;49.296;14.470;2024-01-11T04:03:57;127;105;
47079;PMS5003;33067;49.296;14.470;2024-01-11T04:06:24;147;117;
47079;PMS5003;33067;49.296;14.470;2024-01-11T04:08:48;133;114;
47079;PMS5003;33067;49.296;14.470;2024-01-11T04:11:14;133;121;
47079;PMS5003;33067;49.296;14.470;2024-01-11T04:13:39;129;114;
47079;PMS5003;33067;49.296;14.470;2024-01-11T04:16:04;120;108;
47079;PMS5003;33067;49.296;14.470;2024-01-11T04:18:29;129;117;
47079;PMS5003;33067;49.296;14.470;2024-01-11T04:20:55;109;106;
47079;PMS5003;33067;49.296;14.470;2024-01-11T04:23:21;144;117;
47079;PMS5003;33067;49.296;14.470;2024-01-11T04:25:46;124;111;
47079;PMS5003;33067;49.296;14.470;2024-01-11T04:28:12;127;117;
47079;PMS5003;33067;49.296;14.470;2024-01-11T04:30:38;139;126;
47079;PMS5003;33067;49.296;14.470;2024-01-11T04:33:03;124;114;
47079;PMS5003;33067;49.296;14.470;2024-01-11T04:35:28;135;124;
47079;PMS5003;33067;49.296;14.470;2024-01-11T04:37:53;124;114;
47079;PMS5003;33067;49.296;14.470;2024-01-11T04:40:19;124;115;
47079;PMS5003;33067;49.296;14.470;2024-01-11T04:42:44;144;120;
47079;PMS5003;33067;49.296;14.470;2024-01-11T04:45:10;129;106;
47079;PMS5003;33067;49.296;14.470;2024-01-11T04:47:36;145;123;
47079;PMS5003;33067;49.296;14.470;2024-01-11T04:50:01;135;121;
47079;PMS5003;33067;49.296;14.470;2024-01-11T04:52:27;144;124;
47079;PMS5003;33067;49.296;14.470;2024-01-11T04:54:52;120;111;
47079;PMS5003;33067;49.296;14.470;2024-01-11T04:57:18;123;109;
47079;PMS5003;33067;49.296;14.470;2024-01-11T04:59:43;132;112;
47079;PMS5003;33067;49.296;14.470;2024-01-11T05:02:09;126;111;
47079;PMS5003;33067;49.296;14.470;2024-01-11T05:04:34;124;105;
47079;PMS5003;33067;49.296;14.470;2024-01-11T05:07:00;114;105;
47079;PMS5003;33067;49.296;14.470;2024-01-11T05:09:26;124;109;
47079;PMS5003;33067;49.296;14.470;2024-01-11T05:11:52;138;114;
47079;PMS5003;33067;49.296;14.470;2024-01-11T05:14:17;138;114;
47079;PMS5003;33067;49.296;14.470;2024-01-11T05:16:42;139;115;
47079;PMS5003;33067;49.296;14.470;2024-01-11T05:19:07;132;115;
47079;PMS5003;33067;49.296;14.470;2024-01-11T05:21:33;124;105;
47079;PMS5003;33067;49.296;14.470;2024-01-11T05:23:59;124;108;
47079;PMS5003;33067;49.296;14.470;2024-01-11T05:26:25;136;109;
47079;PMS5003;33067;49.296;14.470;2024-01-11T05:28:50;132;114;
47079;PMS5003;33067;49.296;14.470;2024-01-11T05:31:16;124;112;
47079;PMS5003;33067;49.296;14.470;2024-01-11T05:33:41;127;103;
47079;PMS5003;33067;49.296;14.470;2024-01-11T05:36:07;130;111;
47079;PMS5003;33067;49.296;14.470;2024-01-11T05:38:33;124;108;
47079;PMS5003;33067;49.296;14.470;2024-01-11T05:40:58;132;118;
47079;PMS5003;33067;49.296;14.470;2024-01-11T05:43:23;135;120;
47079;PMS5003;33067;49.296;14.470;2024-01-11T05:45:48;153;133;
47079;PMS5003;33067;49.296;14.470;2024-01-11T05:48:14;144;117;
47079;PMS5003;33067;49.296;14.470;2024-01-11T05:50:39;121;105;
47079;PMS5003;33067;49.296;14.470;2024-01-11T05:53:04;133;111;
47079;PMS5003;33067;49.296;14.470;2024-01-11T05:55:30;127;118;
47079;PMS5003;33067;49.296;14.470;2024-01-11T05:57:55;135;118;
47079;PMS5003;33067;49.296;14.470;2024-01-11T06:00:21;120;109;
47079;PMS5003;33067;49.296;14.470;2024-01-11T06:02:46;121;105;
47079;PMS5003;33067;49.296;14.470;2024-01-11T06:05:12;132;111;
47079;PMS5003;33067;49.296;14.470;2024-01-11T06:07:37;127;105;
47079;PMS5003;33067;49.296;14.470;2024-01-11T06:10:03;127;108;
47079;PMS5003;33067;49.296;14.470;2024-01-11T06:12:29;132;114;
47079;PMS5003;33067;49.296;14.470;2024-01-11T06:14:53;129;115;
47079;PMS5003;33067;49.296;14.470;2024-01-11T06:17:19;121;111;
47079;PMS5003;33067;49.296;14.470;2024-01-11T06:19:45;139;117;
47079;PMS5003;33067;49.296;14.470;2024-01-11T06:22:11;135;118;
47079;PMS5003;33067;49.296;14.470;2024-01-11T06:24:37;135;123;
47079;PMS5003;33067;49.296;14.470;2024-01-11T06:27:02;147;123;
47079;PMS5003;33067;49.296;14.470;2024-01-11T06:29:27;162;139;
47079;PMS5003;33067;49.296;14.470;2024-01-11T06:31:52;192;177;
47079;PMS5003;33067;49.296;14.470;2024-01-11T06:34:17;205;171;
47079;PMS5003;33067;49.296;14.470;2024-01-11T06:36:43;172;141;
47079;PMS5003;33067;49.296;14.470;2024-01-11T06:39:09;130;118;
47079;PMS5003;33067;49.296;14.470;2024-01-11T06:41:34;141;127;
47079;PMS5003;33067;49.296;14.470;2024-01-11T06:44:00;133;114;
47079;PMS5003;33067;49.296;14.470;2024-01-11T06:46:25;129;108;
47079;PMS5003;33067;49.296;14.470;2024-01-11T06:48:50;124;97;
47079;PMS5003;33067;49.296;14.470;2024-01-11T06:51:15;124;111;
47079;PMS5003;33067;49.296;14.470;2024-01-11T06:53:41;132;120;
47079;PMS5003;33067;49.296;14.470;2024-01-11T06:58:31;142;127;
47079;PMS5003;33067;49.296;14.470;2024-01-11T07:00:57;183;169;
47079;PMS5003;33067;49.296;14.470;2024-01-11T07:03:22;171;153;
47079;PMS5003;33067;49.296;14.470;2024-01-11T07:05:47;147;133;
47079;PMS5003;33067;49.296;14.470;2024-01-11T07:08:13;147;129;
47079;PMS5003;33067;49.296;14.470;2024-01-11T07:10:38;184;157;
47079;PMS5003;33067;49.296;14.470;2024-01-11T07:13:04;174;157;
47079;PMS5003;33067;49.296;14.470;2024-01-11T07:15:29;171;148;
47079;PMS5003;33067;49.296;14.470;2024-01-11T07:17:54;165;133;
47079;PMS5003;33067;49.296;14.470;2024-01-11T07:20:20;142;123;
47079;PMS5003;33067;49.296;14.470;2024-01-11T07:22:45;127;114;
47079;PMS5003;33067;49.296;14.470;2024-01-11T07:25:10;136;115;
47079;PMS5003;33067;49.296;14.470;2024-01-11T07:27:36;135;114;
47079;PMS5003;33067;49.296;14.470;2024-01-11T07:30:02;142;129;
47079;PMS5003;33067;49.296;14.470;2024-01-11T07:32:27;124;115;
47079;PMS5003;33067;49.296;14.470;2024-01-11T07:34:52;159;148;
47079;PMS5003;33067;49.296;14.470;2024-01-11T07:37:17;147;126;
47079;PMS5003;33067;49.296;14.470;2024-01-11T07:39:43;142;118;
47079;PMS5003;33067;49.296;14.470;2024-01-11T07:42:09;132;121;
47079;PMS5003;33067;49.296;14.470;2024-01-11T07:44:34;162;138;
47079;PMS5003;33067;49.296;14.470;2024-01-11T07:46:59;150;129;
47079;PMS5003;33067;49.296;14.470;2024-01-11T07:49:25;133;123;
47079;PMS5003;33067;49.296;14.470;2024-01-11T07:51:50;157;138;
47079;PMS5003;33067;49.296;14.470;2024-01-11T07:54:16;138;114;
47079;PMS5003;33067;49.296;14.470;2024-01-11T07:56:42;135;115;
47079;PMS5003;33067;49.296;14.470;2024-01-11T07:59:07;147;129;
47079;PMS5003;33067;49.296;14.470;2024-01-11T08:01:32;132;121;
47079;PMS5003;33067;49.296;14.470;2024-01-11T08:03:58;124;111;
47079;PMS5003;33067;49.296;14.470;2024-01-11T08:06:23;148;129;
47079;PMS5003;33067;49.296;14.470;2024-01-11T08:08:49;144;123;
47079;PMS5003;33067;49.296;14.470;2024-01-11T08:11:14;141;120;
47079;PMS5003;33067;49.296;14.470;2024-01-11T08:13:40;133;120;
47079;PMS5003;33067;49.296;14.470;2024-01-11T08:16:05;151;126;
47079;PMS5003;33067;49.296;14.470;2024-01-11T08:18:31;172;144;
47079;PMS5003;33067;49.296;14.470;2024-01-11T08:20:56;148;133;
47079;PMS5003;33067;49.296;14.470;2024-01-11T08:23:22;142;126;
47079;PMS5003;33067;49.296;14.470;2024-01-11T08:25:49;142;121;
47079;PMS5003;33067;49.296;14.470;2024-01-11T08:28:13;144;121;
47079;PMS5003;33067;49.296;14.470;2024-01-11T08:30:38;147;123;
47079;PMS5003;33067;49.296;14.470;2024-01-11T08:33:03;168;141;
47079;PMS5003;33067;49.296;14.470;2024-01-11T08:35:29;145;129;
47079;PMS5003;33067;49.296;14.470;2024-01-11T08:37:55;148;127;
47079;PMS5003;33067;49.296;14.470;2024-01-11T08:40:20;142;123;
47079;PMS5003;33067;49.296;14.470;2024-01-11T08:42:45;141;129;
47079;PMS5003;33067;49.296;14.470;2024-01-11T08:45:10;139;121;
47079;PMS5003;33067;49.296;14.470;2024-01-11T08:47:36;136;120;
47079;PMS5003;33067;49.296;14.470;2024-01-11T08:50:00;124;118;
47079;PMS5003;33067;49.296;14.470;2024-01-11T08:52:26;150;121;
47079;PMS5003;33067;49.296;14.470;2024-01-11T08:54:52;129;111;
47079;PMS5003;33067;49.296;14.470;2024-01-11T08:57:17;159;132;
47079;PMS5003;33067;49.296;14.470;2024-01-11T08:59:42;120;106;
47079;PMS5003;33067;49.296;14.470;2024-01-11T09:02:08;163;147;
47079;PMS5003;33067;49.296;14.470;2024-01-11T09:04:33;144;121;
47079;PMS5003;33067;49.296;14.470;2024-01-11T09:06:58;129;112;
47079;PMS5003;33067;49.296;14.470;2024-01-11T09:09:24;127;115;
47079;PMS5003;33067;49.296;14.470;2024-01-11T09:11:49;147;121;
47079;PMS5003;33067;49.296;14.470;2024-01-11T09:14:15;136;121;
47079;PMS5003;33067;49.296;14.470;2024-01-11T09:16:40;139;126;
47079;PMS5003;33067;49.296;14.470;2024-01-11T09:19:06;138;123;
47079;PMS5003;33067;49.296;14.470;2024-01-11T09:21:31;150;123;
47079;PMS5003;33067;49.296;14.470;2024-01-11T09:23:56;133;121;
47079;PMS5003;33067;49.296;14.470;2024-01-11T09:26:22;159;129;
47079;PMS5003;33067;49.296;14.470;2024-01-11T09:28:47;162;136;
47079;PMS5003;33067;49.296;14.470;2024-01-11T09:31:13;174;138;
47079;PMS5003;33067;49.296;14.470;2024-01-11T09:33:38;175;148;
47079;PMS5003;33067;49.296;14.470;2024-01-11T09:36:05;154;139;
47079;PMS5003;33067;49.296;14.470;2024-01-11T09:38:31;145;130;
47079;PMS5003;33067;49.296;14.470;2024-01-11T09:40:59;156;132;
47079;PMS5003;33067;49.296;14.470;2024-01-11T09:43:21;153;127;
47079;PMS5003;33067;49.296;14.470;2024-01-11T09:45:47;175;139;
47079;PMS5003;33067;49.296;14.470;2024-01-11T09:48:13;159;135;
47079;PMS5003;33067;49.296;14.470;2024-01-11T09:50:37;180;156;
47079;PMS5003;33067;49.296;14.470;2024-01-11T09:53:03;183;154;
47079;PMS5003;33067;49.296;14.470;2024-01-11T09:55:28;174;153;
47079;PMS5003;33067;49.296;14.470;2024-01-11T09:57:55;183;165;
47079;PMS5003;33067;49.296;14.470;2024-01-11T10:00:20;184;154;
47079;PMS5003;33067;49.296;14.470;2024-01-11T10:02:45;186;160;
47079;PMS5003;33067;49.296;14.470;2024-01-11T10:05:09;169;154;
47079;PMS5003;33067;49.296;14.470;2024-01-11T10:07:35;210;178;
47079;PMS5003;33067;49.296;14.470;2024-01-11T10:10:00;223;193;
47079;PMS5003;33067;49.296;14.470;2024-01-11T10:12:26;161;150;
47079;PMS5003;33067;49.296;14.470;2024-01-11T10:14:51;187;160;
47079;PMS5003;33067;49.296;14.470;2024-01-11T10:17:17;171;152;
47079;PMS5003;33067;49.296;14.470;2024-01-11T10:19:42;166;142;
47079;PMS5003;33067;49.296;14.470;2024-01-11T10:22:07;167;148;
47079;PMS5003;33067;49.296;14.470;2024-01-11T10:24:33;162;146;
47079;PMS5003;33067;49.296;14.470;2024-01-11T10:26:58;183;156;
47079;PMS5003;33067;49.296;14.470;2024-01-11T10:29:27;184;165;
47079;PMS5003;33067;49.296;14.470;2024-01-11T10:31:49;177;166;
47079;PMS5003;33067;49.296;14.470;2024-01-11T10:34:14;181;154;
47079;PMS5003;33067;49.296;14.470;2024-01-11T10:36:40;184;150;
47079;PMS5003;33067;49.296;14.470;2024-01-11T10:39:06;177;159;
47079;PMS5003;33067;49.296;14.470;2024-01-11T10:41:32;163;156;
47079;PMS5003;33067;49.296;14.470;2024-01-11T10:43:57;176;148;
47079;PMS5003;33067;49.296;14.470;2024-01-11T10:46:22;161;142;
47079;PMS5003;33067;49.296;14.470;2024-01-11T10:48:48;164;138;
47079;PMS5003;33067;49.296;14.470;2024-01-11T10:51:14;164;133;
47079;PMS5003;33067;49.296;14.470;2024-01-11T10:53:41;140;130;
47079;PMS5003;33067;49.296;14.470;2024-01-11T10:56:05;148;123;
47079;PMS5003;33067;49.296;14.470;2024-01-11T10:58:31;135;123;
47079;PMS5003;33067;49.296;14.470;2024-01-11T11:00:56;153;129;
47079;PMS5003;33067;49.296;14.470;2024-01-11T11:03:22;154;132;
47079;PMS5003;33067;49.296;14.470;2024-01-11T11:05:48;156;147;
47079;PMS5003;33067;49.296;14.470;2024-01-11T11:08:12;147;126;
47079;PMS5003;33067;49.296;14.470;2024-01-11T11:10:38;130;123;
47079;PMS5003;33067;49.296;14.470;2024-01-11T11:13:03;151;129;
47079;PMS5003;33067;49.296;14.470;2024-01-11T11:15:29;155;132;
47079;PMS5003;33067;49.296;14.470;2024-01-11T11:17:54;151;129;
47079;PMS5003;33067;49.296;14.470;2024-01-11T11:20:19;149;126;
47079;PMS5003;33067;49.296;14.470;2024-01-11T11:22:48;137;119;
47079;PMS5003;33067;49.296;14.470;2024-01-11T11:25:10;138;124;
47079;PMS5003;33067;49.296;14.470;2024-01-11T11:27:35;160;132;
47079;PMS5003;33067;49.296;14.470;2024-01-11T11:30:01;141;126;
47079;PMS5003;33067;49.296;14.470;2024-01-11T11:32:35;144;124;
47079;PMS5003;33067;49.296;14.470;2024-01-11T11:34:52;158;130;
47079;PMS5003;33067;49.296;14.470;2024-01-11T11:37:22;161;141;
47079;PMS5003;33067;49.296;14.470;2024-01-11T11:39:43;161;134;
47079;PMS5003;33067;49.296;14.470;2024-01-11T11:42:08;146;132;
47079;PMS5003;33067;49.296;14.470;2024-01-11T11:44:33;166;140;
47079;PMS5003;33067;49.296;14.470;2024-01-11T11:51:50;159;131;
47079;PMS5003;33067;49.296;14.470;2024-01-11T11:54:15;156;136;
47079;PMS5003;33067;49.296;14.470;2024-01-11T11:56:40;140;128;
47079;PMS5003;33067;49.296;14.470;2024-01-11T11:59:05;148;128;
47079;PMS5003;33067;49.296;14.470;2024-01-11T12:01:31;167;140;
47079;PMS5003;33067;49.296;14.470;2024-01-11T12:03:56;147;132;
47079;PMS5003;33067;49.296;14.470;2024-01-11T12:06:21;149;129;
47079;PMS5003;33067;49.296;14.470;2024-01-11T12:08:47;150;130;
47079;PMS5003;33067;49.296;14.470;2024-01-11T12:11:13;147;131;
47079;PMS5003;33067;49.296;14.470;2024-01-11T12:13:37;158;140;
47079;PMS5003;33067;49.296;14.470;2024-01-11T12:16:02;158;141;
47079;PMS5003;33067;49.296;14.470;2024-01-11T12:18:28;147;131;
47079;PMS5003;33067;49.296;14.470;2024-01-11T12:20:53;173;131;
47079;PMS5003;33067;49.296;14.470;2024-01-11T12:23:19;152;133;
47079;PMS5003;33067;49.296;14.470;2024-01-11T12:25:44;149;133;
47079;PMS5003;33067;49.296;14.470;2024-01-11T12:28:10;145;122;
47079;PMS5003;33067;49.296;14.470;2024-01-11T12:30:36;159;138;
47079;PMS5003;33067;49.296;14.470;2024-01-11T12:33:01;158;137;
47079;PMS5003;33067;49.296;14.470;2024-01-11T12:35:27;141;127;
47079;PMS5003;33067;49.296;14.470;2024-01-11T12:37:52;158;140;
47079;PMS5003;33067;49.296;14.470;2024-01-11T12:40:17;143;132;
47079;PMS5003;33067;49.296;14.470;2024-01-11T12:42:42;162;143;
47079;PMS5003;33067;49.296;14.470;2024-01-11T12:45:08;132;123;
47079;PMS5003;33067;49.296;14.470;2024-01-11T12:47:33;144;127;
47079;PMS5003;33067;49.296;14.470;2024-01-11T12:49:59;140;124;
47079;PMS5003;33067;49.296;14.470;2024-01-11T12:52:24;136;118;
47079;PMS5003;33067;49.296;14.470;2024-01-11T12:54:51;135;126;
47079;PMS5003;33067;49.296;14.470;2024-01-11T12:57:17;129;116;
47079;PMS5003;33067;49.296;14.470;2024-01-11T12:59:41;129;109;
47079;PMS5003;33067;49.296;14.470;2024-01-11T13:02:07;141;129;
47079;PMS5003;33067;49.296;14.470;2024-01-11T13:04:33;126;118;
47079;PMS5003;33067;49.296;14.470;2024-01-11T13:06:57;128;117;
47079;PMS5003;33067;49.296;14.470;2024-01-11T13:09:23;121;110;
47079;PMS5003;33067;49.296;14.470;2024-01-11T13:11:48;125;112;
47079;PMS5003;33067;49.296;14.470;2024-01-11T13:14:13;129;119;
47079;PMS5003;33067;49.296;14.470;2024-01-11T13:16:38;141;133;
47079;PMS5003;33067;49.296;14.470;2024-01-11T13:19:03;160;144;
47079;PMS5003;33067;49.296;14.470;2024-01-11T13:21:29;170;147;
47079;PMS5003;33067;49.296;14.470;2024-01-11T13:23:54;150;129;
47079;PMS5003;33067;49.296;14.470;2024-01-11T13:26:19;153;135;
47079;PMS5003;33067;49.296;14.470;2024-01-11T13:28:44;179;154;
47079;PMS5003;33067;49.296;14.470;2024-01-11T13:31:10;147;136;
47079;PMS5003;33067;49.296;14.470;2024-01-11T13:33:36;157;138;
47079;PMS5003;33067;49.296;14.470;2024-01-11T13:36:01;179;151;
47079;PMS5003;33067;49.296;14.470;2024-01-11T13:38:26;174;145;
47079;PMS5003;33067;49.296;14.470;2024-01-11T13:40:51;169;148;
47079;PMS5003;33067;49.296;14.470;2024-01-11T13:43:17;191;162;
47079;PMS5003;33067;49.296;14.470;2024-01-11T13:45:42;175;161;
47079;PMS5003;33067;49.296;14.470;2024-01-11T13:48:08;183;158;
47079;PMS5003;33067;49.296;14.470;2024-01-11T13:50:33;176;151;
47079;PMS5003;33067;49.296;14.470;2024-01-11T13:52:59;163;142;
47079;PMS5003;33067;49.296;14.470;2024-01-11T13:55:24;161;143;
47079;PMS5003;33067;49.296;14.470;2024-01-11T13:57:50;173;165;
47079;PMS5003;33067;49.296;14.470;2024-01-11T14:00:16;167;151;
47079;PMS5003;33067;49.296;14.470;2024-01-11T14:02:42;172;143;
47079;PMS5003;33067;49.296;14.470;2024-01-11T14:05:07;167;151;
47079;PMS5003;33067;49.296;14.470;2024-01-11T14:07:33;177;157;
47079;PMS5003;33067;49.296;14.470;2024-01-11T14:09:58;170;150;
47079;PMS5003;33067;49.296;14.470;2024-01-11T14:12:23;178;159;
47079;PMS5003;33067;49.296;14.470;2024-01-11T14:14:49;185;165;
47079;PMS5003;33067;49.296;14.470;2024-01-11T14:17:14;156;138;
47079;PMS5003;33067;49.296;14.470;2024-01-11T14:19:40;175;149;
47079;PMS5003;33067;49.296;14.470;2024-01-11T14:22:05;165;151;
47079;PMS5003;33067;49.296;14.470;2024-01-11T14:24:31;166;144;
47079;PMS5003;33067;49.296;14.470;2024-01-11T14:26:56;158;147;
47079;PMS5003;33067;49.296;14.470;2024-01-11T14:29:21;185;167;
47079;PMS5003;33067;49.296;14.470;2024-01-11T14:31:47;176;157;
47079;PMS5003;33067;49.296;14.470;2024-01-11T14:34:13;164;146;
47079;PMS5003;33067;49.296;14.470;2024-01-11T14:36:39;176;156;
47079;PMS5003;33067;49.296;14.470;2024-01-11T14:39:04;167;155;
47079;PMS5003;33067;49.296;14.470;2024-01-11T14:41:30;155;143;
47079;PMS5003;33067;49.296;14.470;2024-01-11T14:43:55;177;161;
47079;PMS5003;33067;49.296;14.470;2024-01-11T14:46:20;161;149;
47079;PMS5003;33067;49.296;14.470;2024-01-11T14:48:45;158;147;
47079;PMS5003;33067;49.296;14.470;2024-01-11T14:51:11;145;141;
47079;PMS5003;33067;49.296;14.470;2024-01-11T14:53:36;165;145;
47079;PMS5003;33067;49.296;14.470;2024-01-11T14:56:02;154;137;
47079;PMS5003;33067;49.296;14.470;2024-01-11T14:58:28;158;142;
47079;PMS5003;33067;49.296;14.470;2024-01-11T15:00:53;161;142;
47079;PMS5003;33067;49.296;14.470;2024-01-11T15:03:18;181;168;
47079;PMS5003;33067;49.296;14.470;2024-01-11T15:05:44;172;150;
47079;PMS5003;33067;49.296;14.470;2024-01-11T15:08:09;176;155;
47079;PMS5003;33067;49.296;14.470;2024-01-11T15:10:34;186;160;
47079;PMS5003;33067;49.296;14.470;2024-01-11T15:13:00;185;154;
47079;PMS5003;33067;49.296;14.470;2024-01-11T15:15:25;170;153;
47079;PMS5003;33067;49.296;14.470;2024-01-11T15:17:50;166;144;
47079;PMS5003;33067;49.296;14.470;2024-01-11T15:20:17;170;152;
47079;PMS5003;33067;49.296;14.470;2024-01-11T15:22:41;179;156;
47079;PMS5003;33067;49.296;14.470;2024-01-11T15:25:07;189;156;
47079;PMS5003;33067;49.296;14.470;2024-01-11T15:27:33;195;161;
47079;PMS5003;33067;49.296;14.470;2024-01-11T15:29:58;234;204;